createdAt,value
2018-05-03T00:00:39.436Z,0
2018-05-03T00:01:38.917Z,0
2018-05-03T00:02:39.162Z,0
2018-05-03T00:03:39.405Z,0
2018-05-03T00:04:38.622Z,0
2018-05-03T00:05:39.391Z,0
2018-05-03T00:06:39.373Z,0
2018-05-03T00:07:39.369Z,0
2018-05-03T00:08:39.356Z,0
2018-05-03T00:09:39.091Z,0
2018-05-03T00:10:38.566Z,0
2018-05-03T00:11:39.326Z,0
2018-05-03T00:12:39.084Z,0
2018-05-03T00:13:39.331Z,0
2018-05-03T00:14:39.301Z,0
2018-05-03T00:15:39.031Z,0
2018-05-03T00:16:38.768Z,0
2018-05-03T00:17:39.270Z,0
2018-05-03T00:18:39.011Z,0
2018-05-03T00:19:39.252Z,0
2018-05-03T00:20:39.243Z,0
2018-05-03T00:21:38.970Z,0
2018-05-03T00:22:38.710Z,0
2018-05-03T00:23:38.952Z,0
2018-05-03T00:24:38.944Z,0
2018-05-03T00:25:39.193Z,0
2018-05-03T00:26:39.181Z,0
2018-05-03T00:27:38.912Z,0
2018-05-03T00:28:38.904Z,0
2018-05-03T00:29:38.894Z,0
2018-05-03T00:30:39.140Z,0
2018-05-03T00:31:39.137Z,0
2018-05-03T00:32:38.615Z,0
2018-05-03T00:33:39.115Z,0
2018-05-03T00:34:38.589Z,0
2018-05-03T00:35:39.094Z,0
2018-05-03T00:36:38.833Z,0
2018-05-03T00:37:38.830Z,0
2018-05-03T00:38:39.073Z,0
2018-05-03T00:39:39.063Z,0
2018-05-03T00:40:39.048Z,0
2018-05-03T00:41:38.779Z,0
2018-05-03T00:42:39.037Z,0
2018-05-03T00:43:38.506Z,0
2018-05-03T00:44:39.009Z,0
2018-05-03T00:45:38.481Z,0
2018-05-03T00:46:38.732Z,0
2018-05-03T00:47:38.740Z,0
2018-05-03T00:48:38.711Z,0
2018-05-03T00:49:38.973Z,0
2018-05-03T00:50:38.691Z,0
2018-05-03T00:51:38.420Z,0
2018-05-03T00:52:38.678Z,0
2018-05-03T00:53:38.659Z,0
2018-05-03T00:54:38.985Z,0
2018-05-03T00:55:38.381Z,0
2018-05-03T00:56:38.377Z,0
2018-05-03T00:57:38.896Z,0
2018-05-03T00:58:38.368Z,0
2018-05-03T00:59:38.868Z,0
2018-05-03T01:00:38.848Z,0
2018-05-03T01:01:38.580Z,0
2018-05-03T01:02:38.637Z,0
2018-05-03T01:03:38.821Z,0
2018-05-03T01:04:38.811Z,0
2018-05-03T01:05:38.820Z,0
2018-05-03T01:06:38.534Z,0
2018-05-03T01:07:38.526Z,0
2018-05-03T01:08:38.513Z,0
2018-05-03T01:09:38.758Z,0
2018-05-03T01:10:38.492Z,0
2018-05-03T01:11:38.226Z,0
2018-05-03T01:12:38.729Z,0
2018-05-03T01:13:38.720Z,0
2018-05-03T01:14:38.452Z,0
2018-05-03T01:15:38.201Z,0
2018-05-03T01:16:38.431Z,0
2018-05-03T01:17:38.686Z,0
2018-05-03T01:18:38.753Z,0
2018-05-03T01:19:38.143Z,0
2018-05-03T01:20:38.131Z,0
2018-05-03T01:21:38.396Z,0
2018-05-03T01:22:38.369Z,0
2018-05-03T01:23:38.644Z,0
2018-05-03T01:24:38.627Z,0
2018-05-03T01:25:38.344Z,0
2018-05-03T01:26:38.335Z,0
2018-05-03T01:27:38.312Z,0
2018-05-03T01:28:38.572Z,0
2018-05-03T01:29:38.566Z,0
2018-05-03T01:30:38.568Z,0
2018-05-03T01:31:38.538Z,0
2018-05-03T01:32:38.267Z,0
2018-05-03T01:33:38.266Z,0
2018-05-03T01:34:38.245Z,0
2018-05-03T01:35:38.253Z,0
2018-05-03T01:36:38.485Z,0
2018-05-03T01:37:38.219Z,0
2018-05-03T01:38:38.463Z,0
2018-05-03T01:39:38.193Z,0
2018-05-03T01:40:37.945Z,0
2018-05-03T01:41:38.177Z,0
2018-05-03T01:42:38.163Z,0
2018-05-03T01:43:37.892Z,0
2018-05-03T01:44:37.883Z,0
2018-05-03T01:45:38.414Z,0
2018-05-03T01:46:38.385Z,0
2018-05-03T01:47:38.113Z,0
2018-05-03T01:48:38.412Z,0
2018-05-03T01:49:38.092Z,0
2018-05-03T01:50:38.083Z,0
2018-05-03T01:51:38.347Z,0
2018-05-03T01:52:38.065Z,0
2018-05-03T01:53:38.052Z,0
2018-05-03T01:54:38.057Z,0
2018-05-03T01:55:38.287Z,0
2018-05-03T01:56:38.021Z,0
2018-05-03T01:57:38.285Z,0
2018-05-03T01:58:38.258Z,0
2018-05-03T01:59:38.017Z,0
2018-05-03T02:00:37.978Z,0
2018-05-03T02:01:37.971Z,0
2018-05-03T02:02:37.981Z,0
2018-05-03T02:03:37.965Z,0
2018-05-03T02:04:38.009Z,0
2018-05-03T02:05:37.930Z,0
2018-05-03T02:06:38.180Z,0
2018-05-03T02:07:37.909Z,0
2018-05-03T02:08:38.172Z,0
2018-05-03T02:09:38.146Z,0
2018-05-03T02:10:38.137Z,0
2018-05-03T02:11:38.124Z,0
2018-05-03T02:12:37.855Z,0
2018-05-03T02:13:38.106Z,0
2018-05-03T02:14:37.837Z,0
2018-05-03T02:15:37.858Z,0
2018-05-03T02:16:38.070Z,0
2018-05-03T02:17:37.293Z,0
2018-05-03T02:18:37.796Z,0
2018-05-03T02:19:37.795Z,0
2018-05-03T02:20:37.517Z,0
2018-05-03T02:21:37.248Z,0
2018-05-03T02:22:37.492Z,0
2018-05-03T02:23:37.997Z,0
2018-05-03T02:24:37.475Z,0
2018-05-03T02:25:37.722Z,0
2018-05-03T02:26:37.973Z,0
2018-05-03T02:27:37.706Z,0
2018-05-03T02:28:37.931Z,0
2018-05-03T02:29:37.677Z,0
2018-05-03T02:30:37.687Z,0
2018-05-03T02:31:37.866Z,0
2018-05-03T02:32:37.906Z,0
2018-05-03T02:33:37.645Z,0
2018-05-03T02:34:37.632Z,0
2018-05-03T02:35:37.888Z,0
2018-05-03T02:36:37.875Z,0
2018-05-03T02:37:37.860Z,0
2018-05-03T02:38:37.608Z,0
2018-05-03T02:39:37.603Z,0
2018-05-03T02:40:37.828Z,0
2018-05-03T02:41:37.825Z,0
2018-05-03T02:42:37.810Z,0
2018-05-03T02:43:37.281Z,0
2018-05-03T02:44:37.279Z,0
2018-05-03T02:45:37.264Z,0
2018-05-03T02:46:37.766Z,0
2018-05-03T02:47:37.504Z,0
2018-05-03T02:48:37.747Z,0
2018-05-03T02:49:37.227Z,0
2018-05-03T02:50:37.739Z,0
2018-05-03T02:51:37.461Z,0
2018-05-03T02:52:37.446Z,0
2018-05-03T02:53:37.185Z,0
2018-05-03T02:54:37.691Z,0
2018-05-03T02:55:37.423Z,0
2018-05-03T02:56:37.406Z,0
2018-05-03T02:57:37.137Z,0
2018-05-03T02:58:37.647Z,0
2018-05-03T02:59:37.114Z,0
2018-05-03T03:00:37.629Z,0
2018-05-03T03:01:37.370Z,0
2018-05-03T03:02:36.832Z,0
2018-05-03T03:03:37.336Z,0
2018-05-03T03:04:37.333Z,0
2018-05-03T03:05:37.572Z,0
2018-05-03T03:06:37.568Z,0
2018-05-03T03:07:37.559Z,0
2018-05-03T03:08:37.318Z,0
2018-05-03T03:09:37.485Z,0
2018-05-03T03:10:37.523Z,0
2018-05-03T03:11:37.272Z,0
2018-05-03T03:12:37.498Z,0
2018-05-03T03:13:37.715Z,0
2018-05-03T03:14:36.964Z,4
2018-05-03T03:15:37.497Z,4
2018-05-03T03:16:37.509Z,0
2018-05-03T03:17:37.455Z,4
2018-05-03T03:18:37.185Z,4
2018-05-03T03:19:37.188Z,8
2018-05-03T03:20:37.162Z,8
2018-05-03T03:21:37.172Z,12
2018-05-03T03:22:37.163Z,12
2018-05-03T03:23:37.135Z,12
2018-05-03T03:24:37.389Z,12
2018-05-03T03:25:37.316Z,16
2018-05-03T03:26:37.364Z,20
2018-05-03T03:27:37.094Z,20
2018-05-03T03:28:37.081Z,20
2018-05-03T03:29:37.333Z,24
2018-05-03T03:30:36.806Z,28
2018-05-03T03:31:37.548Z,28
2018-05-03T03:32:37.041Z,32
2018-05-03T03:33:37.291Z,32
2018-05-03T03:34:37.292Z,32
2018-05-03T03:35:37.008Z,36
2018-05-03T03:36:36.998Z,40
2018-05-03T03:37:36.992Z,40
2018-05-03T03:38:36.979Z,44
2018-05-03T03:39:36.966Z,48
2018-05-03T03:40:37.035Z,48
2018-05-03T03:41:37.208Z,56
2018-05-03T03:42:36.698Z,56
2018-05-03T03:43:36.664Z,56
2018-05-03T03:44:36.655Z,64
2018-05-03T03:45:37.166Z,64
2018-05-03T03:46:36.906Z,72
2018-05-03T03:47:37.151Z,72
2018-05-03T03:48:37.145Z,76
2018-05-03T03:49:37.127Z,84
2018-05-03T03:50:37.108Z,92
2018-05-03T03:51:37.101Z,108
2018-05-03T03:52:37.092Z,120
2018-05-03T03:53:37.083Z,136
2018-05-03T03:54:36.811Z,148
2018-05-03T03:55:37.059Z,156
2018-05-03T03:56:37.057Z,168
2018-05-03T03:57:36.798Z,176
2018-05-03T03:58:37.029Z,188
2018-05-03T03:59:37.020Z,208
2018-05-03T04:00:36.771Z,228
2018-05-03T04:01:37.002Z,256
2018-05-03T04:02:36.213Z,292
2018-05-03T04:03:36.974Z,332
2018-05-03T04:04:36.965Z,372
2018-05-03T04:05:36.702Z,408
2018-05-03T04:06:36.685Z,468
2018-05-03T04:07:36.423Z,528
2018-05-03T04:08:36.935Z,580
2018-05-03T04:09:36.655Z,632
2018-05-03T04:10:36.393Z,688
2018-05-03T04:11:36.382Z,736
2018-05-03T04:12:36.633Z,776
2018-05-03T04:13:36.881Z,756
2018-05-03T04:14:36.863Z,728
2018-05-03T04:15:36.858Z,728
2018-05-03T04:16:36.907Z,760
2018-05-03T04:17:36.579Z,840
2018-05-03T04:18:36.570Z,900
2018-05-03T04:19:37.040Z,932
2018-05-03T04:20:36.296Z,988
2018-05-03T04:21:36.813Z,1024
2018-05-03T04:22:36.710Z,1020
2018-05-03T04:23:36.513Z,1028
2018-05-03T04:24:36.710Z,1004
2018-05-03T04:25:36.497Z,960
2018-05-03T04:26:36.723Z,936
2018-05-03T04:27:36.472Z,976
2018-05-03T04:28:36.483Z,1008
2018-05-03T04:29:36.473Z,1024
2018-05-03T04:30:35.929Z,952
2018-05-03T04:31:36.441Z,984
2018-05-03T04:32:36.436Z,1056
2018-05-03T04:33:36.422Z,1140
2018-05-03T04:34:36.929Z,1160
2018-05-03T04:35:36.402Z,1104
2018-05-03T04:36:36.403Z,1076
2018-05-03T04:37:36.378Z,1132
2018-05-03T04:38:36.374Z,1180
2018-05-03T04:39:36.623Z,1348
2018-05-03T04:40:36.350Z,1500
2018-05-03T04:41:36.359Z,1576
2018-05-03T04:42:36.329Z,1572
2018-05-03T04:43:36.340Z,1600
2018-05-03T04:44:36.577Z,1580
2018-05-03T04:45:36.558Z,1452
2018-05-03T04:46:36.021Z,1428
2018-05-03T04:47:36.540Z,1640
2018-05-03T04:48:36.029Z,1788
2018-05-03T04:49:36.514Z,1840
2018-05-03T04:50:35.994Z,2052
2018-05-03T04:51:36.241Z,2288
2018-05-03T04:52:36.492Z,2456
2018-05-03T04:53:36.441Z,2576
2018-05-03T04:54:36.209Z,2652
2018-05-03T04:55:36.464Z,2568
2018-05-03T04:56:36.183Z,2348
2018-05-03T04:57:36.440Z,2168
2018-05-03T04:58:36.410Z,2100
2018-05-03T04:59:36.438Z,2144
2018-05-03T05:00:35.900Z,2280
2018-05-03T05:01:36.415Z,2484
2018-05-03T05:02:36.143Z,2796
2018-05-03T05:03:36.384Z,3044
2018-05-03T05:04:36.132Z,3204
2018-05-03T05:05:35.851Z,3280
2018-05-03T05:06:36.383Z,3352
2018-05-03T05:07:36.087Z,3416
2018-05-03T05:08:35.821Z,3572
2018-05-03T05:09:36.558Z,3952
2018-05-03T05:10:36.609Z,4236
2018-05-03T05:11:36.050Z,4312
2018-05-03T05:12:36.041Z,4260
2018-05-03T05:13:36.304Z,3752
2018-05-03T05:14:35.773Z,3552
2018-05-03T05:15:36.273Z,3472
2018-05-03T05:16:36.008Z,3400
2018-05-03T05:17:36.256Z,3136
2018-05-03T05:18:35.726Z,2972
2018-05-03T05:19:35.978Z,3416
2018-05-03T05:20:35.975Z,3768
2018-05-03T05:21:35.974Z,3908
2018-05-03T05:22:35.951Z,3780
2018-05-03T05:23:35.936Z,3500
2018-05-03T05:24:35.951Z,3312
2018-05-03T05:25:36.192Z,3368
2018-05-03T05:26:35.925Z,3484
2018-05-03T05:27:35.924Z,3576
2018-05-03T05:28:35.888Z,3580
2018-05-03T05:29:35.625Z,3484
2018-05-03T05:30:35.887Z,3376
2018-05-03T05:31:35.612Z,3264
2018-05-03T05:32:36.134Z,3276
2018-05-03T05:33:36.135Z,3392
2018-05-03T05:34:35.590Z,3404
2018-05-03T05:35:35.847Z,3500
2018-05-03T05:36:35.819Z,3448
2018-05-03T05:37:36.097Z,3392
2018-05-03T05:38:35.956Z,3320
2018-05-03T05:39:36.113Z,3096
2018-05-03T05:40:35.533Z,3180
2018-05-03T05:41:35.776Z,3260
2018-05-03T05:42:36.026Z,3112
2018-05-03T05:43:35.754Z,2892
2018-05-03T05:44:35.755Z,2656
2018-05-03T05:45:35.996Z,2568
2018-05-03T05:46:35.731Z,2524
2018-05-03T05:47:35.459Z,2520
2018-05-03T05:48:35.977Z,2604
2018-05-03T05:49:35.447Z,2752
2018-05-03T05:50:35.435Z,2848
2018-05-03T05:51:35.685Z,2940
2018-05-03T05:52:35.671Z,3068
2018-05-03T05:53:35.664Z,3020
2018-05-03T05:54:35.651Z,3308
2018-05-03T05:55:35.651Z,3568
2018-05-03T05:56:35.652Z,3656
2018-05-03T05:57:35.623Z,3708
2018-05-03T05:58:35.879Z,3848
2018-05-03T05:59:35.945Z,4016
2018-05-03T06:00:35.351Z,4148
2018-05-03T06:01:35.858Z,4056
2018-05-03T06:02:35.862Z,3984
2018-05-03T06:03:35.831Z,3992
2018-05-03T06:04:35.825Z,4012
2018-05-03T06:05:35.808Z,4124
2018-05-03T06:06:35.825Z,4380
2018-05-03T06:07:35.283Z,4668
2018-05-03T06:08:35.527Z,4756
2018-05-03T06:09:34.996Z,4496
2018-05-03T06:10:35.614Z,4444
2018-05-03T06:11:35.500Z,4144
2018-05-03T06:12:35.749Z,4168
2018-05-03T06:13:35.752Z,5016
2018-05-03T06:14:35.733Z,5624
2018-05-03T06:15:35.722Z,5432
2018-05-03T06:16:35.451Z,4956
2018-05-03T06:17:35.443Z,5016
2018-05-03T06:18:35.697Z,6076
2018-05-03T06:19:35.167Z,6948
2018-05-03T06:20:35.158Z,7332
2018-05-03T06:21:35.690Z,7572
2018-05-03T06:22:35.405Z,7656
2018-05-03T06:23:35.454Z,7480
2018-05-03T06:24:35.141Z,7160
2018-05-03T06:25:35.398Z,6984
2018-05-03T06:26:35.641Z,7140
2018-05-03T06:27:35.355Z,7564
2018-05-03T06:28:35.087Z,7712
2018-05-03T06:29:35.611Z,7660
2018-05-03T06:30:35.337Z,7180
2018-05-03T06:31:35.070Z,6488
2018-05-03T06:32:35.581Z,6376
2018-05-03T06:33:35.322Z,6464
2018-05-03T06:34:35.557Z,6852
2018-05-03T06:35:35.569Z,7188
2018-05-03T06:36:35.554Z,6728
2018-05-03T06:37:35.276Z,6272
2018-05-03T06:38:35.368Z,6240
2018-05-03T06:39:35.517Z,6316
2018-05-03T06:40:35.531Z,6132
2018-05-03T06:41:35.503Z,6148
2018-05-03T06:42:35.492Z,5976
2018-05-03T06:43:35.498Z,5608
2018-05-03T06:44:34.963Z,5348
2018-05-03T06:45:35.213Z,5324
2018-05-03T06:46:35.479Z,5328
2018-05-03T06:47:35.198Z,5088
2018-05-03T06:48:35.194Z,5036
2018-05-03T06:49:34.922Z,5264
2018-05-03T06:50:35.174Z,5196
2018-05-03T06:51:35.675Z,5056
2018-05-03T06:52:35.158Z,5192
2018-05-03T06:53:35.404Z,5168
2018-05-03T06:54:35.138Z,5212
2018-05-03T06:55:35.133Z,5008
2018-05-03T06:56:35.124Z,4712
2018-05-03T06:57:35.112Z,4544
2018-05-03T06:58:35.253Z,4724
2018-05-03T06:59:35.359Z,4828
2018-05-03T07:00:35.351Z,4920
2018-05-03T07:01:35.088Z,5048
2018-05-03T07:02:35.079Z,4996
2018-05-03T07:03:34.816Z,5004
2018-05-03T07:04:35.290Z,5300
2018-05-03T07:05:34.797Z,5224
2018-05-03T07:06:34.819Z,4964
2018-05-03T07:07:35.294Z,4832
2018-05-03T07:08:35.036Z,4760
2018-05-03T07:09:35.276Z,4680
2018-05-03T07:10:35.271Z,4576
2018-05-03T07:11:35.261Z,4516
2018-05-03T07:12:35.253Z,4244
2018-05-03T07:13:34.988Z,4236
2018-05-03T07:14:35.236Z,4360
2018-05-03T07:15:35.194Z,4440
2018-05-03T07:16:34.967Z,4552
2018-05-03T07:17:35.213Z,4612
2018-05-03T07:18:34.947Z,4572
2018-05-03T07:19:34.944Z,4652
2018-05-03T07:20:34.928Z,4748
2018-05-03T07:21:35.180Z,4808
2018-05-03T07:22:35.211Z,4912
2018-05-03T07:23:34.422Z,4944
2018-05-03T07:24:34.897Z,4976
2018-05-03T07:25:35.150Z,5104
2018-05-03T07:26:34.626Z,5300
2018-05-03T07:27:34.621Z,5416
2018-05-03T07:28:35.325Z,5564
2018-05-03T07:29:35.173Z,5636
2018-05-03T07:30:34.600Z,5604
2018-05-03T07:31:34.586Z,5620
2018-05-03T07:32:34.834Z,5700
2018-05-03T07:33:34.834Z,5988
2018-05-03T07:34:34.818Z,6252
2018-05-03T07:35:35.030Z,6180
2018-05-03T07:36:35.064Z,6468
2018-05-03T07:37:34.805Z,6616
2018-05-03T07:38:35.050Z,6696
2018-05-03T07:39:35.039Z,6604
2018-05-03T07:40:34.861Z,6256
2018-05-03T07:41:34.837Z,6184
2018-05-03T07:42:34.753Z,6264
2018-05-03T07:43:35.019Z,6140
2018-05-03T07:44:34.994Z,5892
2018-05-03T07:45:35.008Z,5636
2018-05-03T07:46:34.983Z,5772
2018-05-03T07:47:34.984Z,5784
2018-05-03T07:48:35.150Z,5628
2018-05-03T07:49:34.954Z,5760
2018-05-03T07:50:34.945Z,6092
2018-05-03T07:51:34.425Z,6112
2018-05-03T07:52:34.928Z,6092
2018-05-03T07:53:34.929Z,6332
2018-05-03T07:54:34.931Z,6608
2018-05-03T07:55:34.907Z,6740
2018-05-03T07:56:34.689Z,6680
2018-05-03T07:57:34.891Z,6652
2018-05-03T07:58:34.366Z,6608
2018-05-03T07:59:34.892Z,6412
2018-05-03T08:00:34.870Z,6232
2018-05-03T08:01:34.865Z,6176
2018-05-03T08:02:34.871Z,6216
2018-05-03T08:03:34.593Z,6364
2018-05-03T08:04:34.323Z,6608
2018-05-03T08:05:34.055Z,6832
2018-05-03T08:06:34.305Z,7068
2018-05-03T08:07:34.560Z,7160
2018-05-03T08:08:34.810Z,7320
2018-05-03T08:09:34.545Z,7536
2018-05-03T08:10:34.834Z,7840
2018-05-03T08:11:34.786Z,8148
2018-05-03T08:12:34.558Z,8420
2018-05-03T08:13:34.785Z,8552
2018-05-03T08:14:34.768Z,8484
2018-05-03T08:15:34.239Z,8544
2018-05-03T08:16:34.491Z,8872
2018-05-03T08:17:34.483Z,9280
2018-05-03T08:18:34.737Z,9712
2018-05-03T08:19:34.728Z,10040
2018-05-03T08:20:34.718Z,10236
2018-05-03T08:21:34.453Z,10696
2018-05-03T08:22:34.663Z,11572
2018-05-03T08:23:34.447Z,12624
2018-05-03T08:24:34.695Z,13712
2018-05-03T08:25:34.659Z,14708
2018-05-03T08:26:34.171Z,15876
2018-05-03T08:27:34.648Z,17152
2018-05-03T08:28:34.711Z,17248
2018-05-03T08:29:34.395Z,16704
2018-05-03T08:30:34.675Z,14992
2018-05-03T08:31:34.653Z,13512
2018-05-03T08:32:34.376Z,12888
2018-05-03T08:33:34.628Z,12792
2018-05-03T08:34:34.367Z,12588
2018-05-03T08:35:34.615Z,12032
2018-05-03T08:36:34.356Z,11508
2018-05-03T08:37:34.620Z,10876
2018-05-03T08:38:34.597Z,10520
2018-05-03T08:39:34.340Z,10520
2018-05-03T08:40:34.343Z,10680
2018-05-03T08:41:34.327Z,11188
2018-05-03T08:42:34.057Z,11908
2018-05-03T08:43:34.324Z,12496
2018-05-03T08:44:34.608Z,12640
2018-05-03T08:45:34.559Z,12160
2018-05-03T08:46:34.761Z,11668
2018-05-03T08:47:34.543Z,11116
2018-05-03T08:48:34.551Z,10568
2018-05-03T08:49:34.540Z,10312
2018-05-03T08:50:34.535Z,10400
2018-05-03T08:51:34.522Z,10608
2018-05-03T08:52:34.255Z,10924
2018-05-03T08:53:34.517Z,11084
2018-05-03T08:54:34.502Z,11024
2018-05-03T08:55:34.124Z,10608
2018-05-03T08:56:34.235Z,9952
2018-05-03T08:57:34.498Z,9380
2018-05-03T08:58:33.961Z,9116
2018-05-03T08:59:34.481Z,9088
2018-05-03T09:00:34.218Z,9220
2018-05-03T09:01:34.379Z,9728
2018-05-03T09:02:34.457Z,10336
2018-05-03T09:03:33.937Z,10692
2018-05-03T09:04:34.184Z,10876
2018-05-03T09:05:34.445Z,10940
2018-05-03T09:06:34.442Z,11180
2018-05-03T09:07:34.683Z,11672
2018-05-03T09:08:33.905Z,12084
2018-05-03T09:09:34.421Z,12272
2018-05-03T09:10:34.414Z,12240
2018-05-03T09:11:34.145Z,11836
2018-05-03T09:12:34.364Z,11472
2018-05-03T09:13:34.134Z,11200
2018-05-03T09:14:34.389Z,11188
2018-05-03T09:15:34.386Z,11544
2018-05-03T09:16:34.120Z,12256
2018-05-03T09:17:34.116Z,12732
2018-05-03T09:18:34.367Z,13080
2018-05-03T09:19:33.837Z,13432
2018-05-03T09:20:33.834Z,13712
2018-05-03T09:21:34.093Z,13700
2018-05-03T09:22:34.194Z,13388
2018-05-03T09:23:34.332Z,12760
2018-05-03T09:24:33.812Z,12164
2018-05-03T09:25:34.061Z,11740
2018-05-03T09:26:34.086Z,11200
2018-05-03T09:27:34.053Z,10524
2018-05-03T09:28:34.045Z,9980
2018-05-03T09:29:34.309Z,9788
2018-05-03T09:30:34.287Z,9976
2018-05-03T09:31:34.031Z,10424
2018-05-03T09:32:34.279Z,10892
2018-05-03T09:33:33.753Z,11248
2018-05-03T09:34:34.010Z,11564
2018-05-03T09:35:33.744Z,12016
2018-05-03T09:36:34.005Z,12376
2018-05-03T09:37:34.261Z,12608
2018-05-03T09:38:33.987Z,12680
2018-05-03T09:39:33.718Z,12868
2018-05-03T09:40:33.975Z,13176
2018-05-03T09:41:34.229Z,13340
2018-05-03T09:42:33.708Z,13372
2018-05-03T09:43:34.433Z,13048
2018-05-03T09:44:33.979Z,12408
2018-05-03T09:45:34.162Z,11952
2018-05-03T09:46:33.936Z,11788
2018-05-03T09:47:33.678Z,11976
2018-05-03T09:48:33.672Z,12252
2018-05-03T09:49:33.923Z,12572
2018-05-03T09:50:33.662Z,13016
2018-05-03T09:51:34.167Z,13592
2018-05-03T09:52:34.213Z,14100
2018-05-03T09:53:33.642Z,14436
2018-05-03T09:54:34.156Z,14636
2018-05-03T09:55:34.143Z,14360
2018-05-03T09:56:33.367Z,13908
2018-05-03T09:57:34.136Z,13596
2018-05-03T09:58:33.630Z,13456
2018-05-03T09:59:34.117Z,13508
2018-05-03T10:00:33.861Z,13648
2018-05-03T10:01:33.855Z,13724
2018-05-03T10:02:34.103Z,13720
2018-05-03T10:03:33.883Z,13628
2018-05-03T10:04:33.856Z,13656
2018-05-03T10:05:34.095Z,13900
2018-05-03T10:06:33.316Z,14176
2018-05-03T10:07:33.818Z,14196
2018-05-03T10:08:33.844Z,14192
2018-05-03T10:09:33.556Z,13896
2018-05-03T10:10:33.813Z,14000
2018-05-03T10:11:33.816Z,14224
2018-05-03T10:12:33.797Z,14056
2018-05-03T10:13:34.052Z,14028
2018-05-03T10:14:34.171Z,13848
2018-05-03T10:15:33.778Z,13496
2018-05-03T10:16:33.777Z,13268
2018-05-03T10:17:33.772Z,13036
2018-05-03T10:18:33.779Z,12740
2018-05-03T10:19:34.023Z,12552
2018-05-03T10:20:33.500Z,12728
2018-05-03T10:21:34.015Z,12932
2018-05-03T10:22:33.754Z,12980
2018-05-03T10:23:33.741Z,13048
2018-05-03T10:24:33.483Z,13280
2018-05-03T10:25:33.742Z,13652
2018-05-03T10:26:33.728Z,13952
2018-05-03T10:27:33.204Z,13908
2018-05-03T10:28:34.208Z,14236
2018-05-03T10:29:33.715Z,14580
2018-05-03T10:30:33.968Z,14796
2018-05-03T10:31:33.450Z,14864
2018-05-03T10:32:33.958Z,14904
2018-05-03T10:33:33.702Z,14932
2018-05-03T10:34:33.432Z,14976
2018-05-03T10:35:33.167Z,15016
2018-05-03T10:36:33.705Z,15032
2018-05-03T10:37:33.724Z,15004
2018-05-03T10:38:33.685Z,14924
2018-05-03T10:39:33.925Z,14764
2018-05-03T10:40:33.936Z,14600
2018-05-03T10:41:33.406Z,14492
2018-05-03T10:42:33.907Z,14420
2018-05-03T10:43:33.907Z,14320
2018-05-03T10:44:33.650Z,14192
2018-05-03T10:45:33.379Z,14092
2018-05-03T10:46:33.378Z,14064
2018-05-03T10:47:33.628Z,14120
2018-05-03T10:48:33.885Z,14368
2018-05-03T10:49:33.896Z,14520
2018-05-03T10:50:33.613Z,14560
2018-05-03T10:51:33.873Z,14300
2018-05-03T10:52:33.877Z,14096
2018-05-03T10:53:33.856Z,14016
2018-05-03T10:54:33.593Z,13896
2018-05-03T10:55:33.792Z,13832
2018-05-03T10:56:33.582Z,13888
2018-05-03T10:57:33.816Z,14108
2018-05-03T10:58:33.572Z,14464
2018-05-03T10:59:33.569Z,14992
2018-05-03T11:00:33.848Z,15292
2018-05-03T11:01:33.568Z,15280
2018-05-03T11:02:33.302Z,15524
2018-05-03T11:03:33.553Z,15728
2018-05-03T11:04:33.815Z,15920
2018-05-03T11:05:34.037Z,15792
2018-05-03T11:06:33.799Z,15472
2018-05-03T11:07:33.791Z,15320
2018-05-03T11:08:33.791Z,15296
2018-05-03T11:09:33.526Z,15384
2018-05-03T11:10:34.220Z,15612
2018-05-03T11:11:33.519Z,15924
2018-05-03T11:12:33.516Z,16320
2018-05-03T11:13:33.515Z,16576
2018-05-03T11:14:33.760Z,16608
2018-05-03T11:15:33.499Z,16384
2018-05-03T11:16:33.760Z,15828
2018-05-03T11:17:33.544Z,15304
2018-05-03T11:18:33.493Z,14440
2018-05-03T11:19:33.504Z,13320
2018-05-03T11:20:32.965Z,12488
2018-05-03T11:21:33.525Z,11824
2018-05-03T11:22:33.737Z,11216
2018-05-03T11:23:33.214Z,10624
2018-05-03T11:24:33.486Z,9992
2018-05-03T11:25:32.943Z,9552
2018-05-03T11:26:33.219Z,9116
2018-05-03T11:27:33.197Z,8712
2018-05-03T11:28:33.450Z,8340
2018-05-03T11:29:33.455Z,7516
2018-05-03T11:30:33.182Z,7096
2018-05-03T11:31:33.973Z,6992
2018-05-03T11:32:33.691Z,7308
2018-05-03T11:33:33.441Z,7460
2018-05-03T11:34:33.425Z,6936
2018-05-03T11:35:33.189Z,7120
2018-05-03T11:36:33.428Z,7560
2018-05-03T11:37:33.673Z,9352
2018-05-03T11:38:33.430Z,11104
2018-05-03T11:39:33.403Z,11812
2018-05-03T11:40:33.144Z,10040
2018-05-03T11:41:33.408Z,9096
2018-05-03T11:42:33.653Z,8644
2018-05-03T11:43:33.129Z,9580
2018-05-03T11:44:33.385Z,10296
2018-05-03T11:45:33.394Z,8972
2018-05-03T11:46:33.381Z,8900
2018-05-03T11:47:33.371Z,10360
2018-05-03T11:48:33.651Z,12440
2018-05-03T11:49:33.106Z,11124
2018-05-03T11:50:33.106Z,9436
2018-05-03T11:51:33.366Z,10284
2018-05-03T11:52:32.836Z,10576
2018-05-03T11:53:33.088Z,9908
2018-05-03T11:54:33.356Z,9716
2018-05-03T11:55:33.596Z,9100
2018-05-03T11:56:33.602Z,8632
2018-05-03T11:57:33.600Z,7956
2018-05-03T11:58:33.072Z,7636
2018-05-03T11:59:33.544Z,7448
2018-05-03T12:00:33.328Z,7516
2018-05-03T12:01:33.322Z,6972
2018-05-03T12:02:33.507Z,6508
2018-05-03T12:03:33.583Z,6652
2018-05-03T12:04:33.318Z,6840
2018-05-03T12:05:33.579Z,7108
2018-05-03T12:06:33.569Z,7760
2018-05-03T12:07:33.292Z,7920
2018-05-03T12:08:33.551Z,7704
2018-05-03T12:09:33.316Z,6308
2018-05-03T12:10:33.543Z,5940
2018-05-03T12:11:33.730Z,6488
2018-05-03T12:12:33.550Z,6588
2018-05-03T12:13:33.280Z,6612
2018-05-03T12:14:33.010Z,5620
2018-05-03T12:15:33.525Z,5412
2018-05-03T12:16:33.517Z,5196
2018-05-03T12:17:33.016Z,5288
2018-05-03T12:18:33.532Z,5276
2018-05-03T12:19:33.253Z,5364
2018-05-03T12:20:33.258Z,5720
2018-05-03T12:21:32.729Z,5504
2018-05-03T12:22:33.489Z,5272
2018-05-03T12:23:33.491Z,5236
2018-05-03T12:24:33.628Z,5160
2018-05-03T12:25:33.480Z,5028
2018-05-03T12:26:33.215Z,5020
2018-05-03T12:27:33.214Z,5104
2018-05-03T12:28:33.466Z,5344
2018-05-03T12:29:32.943Z,5828
2018-05-03T12:30:32.939Z,5932
2018-05-03T12:31:32.938Z,5816
2018-05-03T12:32:33.452Z,5668
2018-05-03T12:33:33.456Z,6088
2018-05-03T12:34:33.458Z,6232
2018-05-03T12:35:33.191Z,6308
2018-05-03T12:36:33.170Z,6552
2018-05-03T12:37:33.167Z,6400
2018-05-03T12:38:33.162Z,6952
2018-05-03T12:39:32.903Z,7400
2018-05-03T12:40:33.418Z,7212
2018-05-03T12:41:32.896Z,7124
2018-05-03T12:42:33.134Z,6748
2018-05-03T12:43:33.407Z,6700
2018-05-03T12:44:33.405Z,7000
2018-05-03T12:45:32.873Z,7064
2018-05-03T12:46:33.130Z,7116
2018-05-03T12:47:32.870Z,7256
2018-05-03T12:48:33.354Z,7272
2018-05-03T12:49:33.374Z,7176
2018-05-03T12:50:33.366Z,6992
2018-05-03T12:51:33.106Z,7212
2018-05-03T12:52:32.846Z,7756
2018-05-03T12:53:33.383Z,9008
2018-05-03T12:54:33.100Z,8316
2018-05-03T12:55:33.355Z,7188
2018-05-03T12:56:33.162Z,7044
2018-05-03T12:57:33.337Z,8256
2018-05-03T12:58:33.343Z,8340
2018-05-03T12:59:32.817Z,7936
2018-05-03T13:00:33.562Z,7940
2018-05-03T13:01:33.329Z,9132
2018-05-03T13:02:33.341Z,10336
2018-05-03T13:03:33.334Z,10984
2018-05-03T13:04:33.311Z,10120
2018-05-03T13:05:32.789Z,9000
2018-05-03T13:06:33.303Z,7484
2018-05-03T13:07:33.304Z,6296
2018-05-03T13:08:32.777Z,6604
2018-05-03T13:09:33.297Z,7508
2018-05-03T13:10:33.032Z,7728
2018-05-03T13:11:33.285Z,7824
2018-05-03T13:12:33.278Z,6852
2018-05-03T13:13:33.275Z,5884
2018-05-03T13:14:33.016Z,6068
2018-05-03T13:15:33.011Z,7140
2018-05-03T13:16:33.003Z,8616
2018-05-03T13:17:32.997Z,8908
2018-05-03T13:18:33.016Z,9548
2018-05-03T13:19:32.996Z,10248
2018-05-03T13:20:32.816Z,9552
2018-05-03T13:21:33.244Z,8172
2018-05-03T13:22:32.993Z,8176
2018-05-03T13:23:32.716Z,8424
2018-05-03T13:24:32.977Z,7348
2018-05-03T13:25:33.189Z,6324
2018-05-03T13:26:33.225Z,5924
2018-05-03T13:27:32.963Z,5484
2018-05-03T13:28:32.955Z,5764
2018-05-03T13:29:33.227Z,5876
2018-05-03T13:30:33.207Z,6596
2018-05-03T13:31:32.683Z,7216
2018-05-03T13:32:32.681Z,7392
2018-05-03T13:33:33.223Z,6456
2018-05-03T13:34:33.497Z,6132
2018-05-03T13:35:32.671Z,5700